Time;durP1;ratioP1;P1;durP2;ratioP2;P2;SDS_P1;SDS_P2;PMS_P1;PMS_P2;Temp;Humidity;BMP_temperature;BMP_pressure;BME280_temperature;BME280_humidity;BME280_pressure;Samples;Min_cycle;Max_cycle;Signal;HPM_P1;HPM_P2
2023/01/26 00:01:14;;;;;;;172.38;54.78;;;;;;;-2.07;100.00;102518.13;5245635;28;20021;-82
2023/01/26 00:03:46;;;;;;;169.82;54.28;;;;;;;-2.06;100.00;102512.88;5257703;28;20196;-82
2023/01/26 00:06:19;;;;;;;180.07;54.63;;;;;;;-2.05;100.00;102512.00;5258820;28;20040;-81
2023/01/26 00:08:53;;;;;;;171.77;56.33;;;;;;;-2.02;100.00;102517.16;5259028;28;20040;-83
2023/01/26 00:11:26;;;;;;;175.70;56.65;;;;;;;-2.03;100.00;102509.34;5258427;28;20029;-81
2023/01/26 00:13:59;;;;;;;173.18;53.72;;;;;;;-2.00;100.00;102504.97;5257560;28;20032;-82
2023/01/26 00:16:31;;;;;;;171.07;53.05;;;;;;;-2.05;100.00;102505.88;5258929;28;20036;-82
2023/01/26 00:19:02;;;;;;;161.38;53.53;;;;;;;-2.04;100.00;102497.16;5259120;28;20441;-81
2023/01/26 00:21:33;;;;;;;173.85;52.72;;;;;;;-2.04;100.00;102492.78;5265692;28;20123;-82
2023/01/26 00:24:05;;;;;;;154.20;49.30;;;;;;;-2.02;100.00;102487.56;5266249;28;20426;-81
2023/01/26 00:26:36;;;;;;;156.75;50.67;;;;;;;-1.99;100.00;102491.00;5243776;28;20029;-82
2023/01/26 00:29:08;;;;;;;157.23;50.03;;;;;;;-1.99;100.00;102491.00;5260081;28;20037;-82
2023/01/26 00:31:39;;;;;;;152.23;48.05;;;;;;;-1.95;100.00;102489.19;5260300;28;20021;-81
2023/01/26 00:34:10;;;;;;;159.65;53.10;;;;;;;-1.95;100.00;102487.44;5234182;28;20018;-81
2023/01/26 00:36:42;;;;;;;154.25;53.30;;;;;;;-1.96;100.00;102479.63;5261875;28;20083;-82
2023/01/26 00:39:13;;;;;;;155.95;49.30;;;;;;;-1.95;100.00;102478.72;5260089;28;20025;-82
2023/01/26 00:44:36;;;;;;;164.45;53.55;;;;;;;-1.96;100.00;102475.25;5259913;28;20029;-82
2023/01/26 00:47:10;;;;;;;169.77;58.35;;;;;;;-2.01;100.00;102473.59;5260361;28;20485;-80
2023/01/26 00:49:42;;;;;;;166.27;52.65;;;;;;;-1.97;100.00;102470.03;5260011;28;20042;-81
2023/01/26 00:52:13;;;;;;;168.32;52.78;;;;;;;-2.00;100.00;102459.63;5244036;28;20028;-81
2023/01/26 00:54:45;;;;;;;155.52;51.17;;;;;;;-1.99;100.00;102459.59;5260167;28;20037;-81
2023/01/26 00:57:16;;;;;;;159.85;52.13;;;;;;;-2.00;100.00;102450.03;5260884;28;20052;-81
2023/01/26 00:59:47;;;;;;;154.65;49.72;;;;;;;-1.96;100.00;102446.50;5257970;28;20059;-82
2023/01/26 01:02:19;;;;;;;160.25;51.22;;;;;;;-1.93;100.00;102441.22;5260523;28;20026;-81
2023/01/26 01:04:50;;;;;;;161.52;51.42;;;;;;;-1.91;100.00;102443.81;5260763;28;20834;-82
2023/01/26 01:07:22;;;;;;;149.23;49.53;;;;;;;-1.92;100.00;102442.94;5261862;28;20463;-81
2023/01/26 01:09:53;;;;;;;170.35;55.88;;;;;;;-1.95;100.00;102447.34;5260604;28;20204;-82
2023/01/26 01:12:25;;;;;;;159.82;50.03;;;;;;;-1.92;100.00;102435.09;5255885;28;20025;-81
2023/01/26 01:14:56;;;;;;;160.60;49.83;;;;;;;-1.88;100.00;102437.66;5255882;28;20451;-81
2023/01/26 01:17:28;;;;;;;157.95;47.90;;;;;;;-1.73;100.00;102434.81;5253976;28;20060;-81
2023/01/26 01:19:59;;;;;;;154.80;46.92;;;;;;;-1.74;100.00;102438.31;5260066;28;20025;-81
2023/01/26 01:22:31;;;;;;;152.45;49.08;;;;;;;-1.73;100.00;102447.91;5225007;28;20073;-81
2023/01/26 01:25:03;;;;;;;149.40;46.58;;;;;;;-1.73;100.00;102445.28;5215437;28;20044;-81
2023/01/26 01:27:34;;;;;;;151.00;49.40;;;;;;;-1.70;100.00;102447.84;5218612;28;20026;-81
2023/01/26 01:30:06;;;;;;;146.35;48.47;;;;;;;-1.75;100.00;102444.44;5219727;28;20050;-81
2023/01/26 01:32:41;;;;;;;147.05;49.45;;;;;;;-1.77;100.00;102436.63;5217879;28;20040;-81
2023/01/26 01:35:12;;;;;;;149.77;50.17;;;;;;;-1.82;100.00;102440.16;5220032;28;20042;-81
2023/01/26 01:37:43;;;;;;;141.45;49.58;;;;;;;-1.75;100.00;102429.59;5217092;28;20065;-81
2023/01/26 01:40:14;;;;;;;145.45;49.35;;;;;;;-1.76;100.00;102438.31;5218431;28;20479;-81
2023/01/26 01:42:47;;;;;;;144.15;49.63;;;;;;;-1.72;100.00;102445.25;5217735;28;20026;-81
2023/01/26 01:45:25;;;;;;;141.98;48.08;;;;;;;-1.70;100.00;102445.25;5217842;28;20030;-82
2023/01/26 01:48:01;;;;;;;141.63;45.28;;;;;;;-1.68;100.00;102445.19;5217687;28;20058;-80
2023/01/26 01:50:37;;;;;;;143.73;44.67;;;;;;;-1.60;100.00;102443.31;5221296;28;20026;-81
2023/01/26 01:53:13;;;;;;;146.55;46.85;;;;;;;-1.63;100.00;102444.25;5222426;28;20030;-80
2023/01/26 01:55:45;;;;;;;138.88;45.45;;;;;;;-1.54;100.00;102453.69;5222800;28;20030;-81
2023/01/26 01:58:17;;;;;;;132.30;44.22;;;;;;;-1.54;100.00;102445.84;5221847;28;20034;-82
2023/01/26 02:00:48;;;;;;;134.52;46.30;;;;;;;-1.53;100.00;102445.78;5224002;28;20034;-80
2023/01/26 02:03:20;;;;;;;145.52;50.10;;;;;;;-1.63;100.00;102445.97;5224235;28;20026;-81
2023/01/26 02:06:12;;;;;;;137.63;45.63;;;;;;;-1.57;100.00;102444.13;5223065;28;20085;-81
2023/01/26 02:08:53;;;;;;;148.10;53.35;;;;;;;-1.65;100.00;102435.53;5220853;28;20044;-81
2023/01/26 02:11:43;;;;;;;135.95;45.05;;;;;;;-1.60;100.00;102430.22;5221262;28;20237;-81
2023/01/26 02:14:15;;;;;;;129.18;43.33;;;;;;;-1.59;100.00;102427.59;5222874;28;20444;-81
2023/01/26 02:16:46;;;;;;;129.27;43.72;;;;;;;-1.59;100.00;102429.34;5218798;28;20023;-81
2023/01/26 02:19:26;;;;;;;137.43;46.75;;;;;;;-1.58;100.00;102418.88;5220918;28;20027;-82
2023/01/26 02:22:06;;;;;;;145.20;48.28;;;;;;;-1.55;100.00;102413.56;5233173;28;20136;-81
2023/01/26 02:24:40;;;;;;;143.45;45.72;;;;;;;-1.55;100.00;102404.84;5264524;28;20026;-82
2023/01/26 02:27:11;;;;;;;141.10;46.47;;;;;;;-1.55;100.00;102404.84;5260263;28;20435;-82
2023/01/26 02:29:42;;;;;;;132.23;43.72;;;;;;;-1.53;100.00;102409.16;5256738;28;20038;-81
2023/01/26 02:32:14;;;;;;;136.65;46.58;;;;;;;-1.57;100.00;102420.56;5261444;28;20025;-81
2023/01/26 02:34:45;;;;;;;130.27;45.03;;;;;;;-1.58;100.00;102403.16;5264073;28;20029;-81
2023/01/26 02:37:16;;;;;;;126.78;41.88;;;;;;;-1.59;100.00;102406.66;5262750;28;20047;-81
2023/01/26 02:39:55;;;;;;;140.60;48.25;;;;;;;-1.54;100.00;102412.69;5264083;28;27774;-81
2023/01/26 02:42:40;;;;;;;126.75;42.00;;;;;;;-1.53;100.00;102409.16;5261289;28;20101;-80
2023/01/26 02:45:14;;;;;;;133.02;41.53;;;;;;;-1.53;100.00;102403.91;5259149;28;20034;-81
2023/01/26 02:47:46;;;;;;;123.63;39.70;;;;;;;-1.53;100.00;102398.69;5262023;28;20033;-81
2023/01/26 02:50:17;;;;;;;140.57;46.17;;;;;;;-1.48;100.00;102406.47;5264149;28;20031;-81
2023/01/26 02:52:48;;;;;;;134.63;44.03;;;;;;;-1.41;100.00;102410.72;5262268;28;20025;-82
2023/01/26 02:55:26;;;;;;;127.82;41.63;;;;;;;-1.38;100.00;102394.94;5262184;28;20084;-80
2023/01/26 02:58:01;;;;;;;117.65;41.50;;;;;;;-1.41;100.00;102400.22;5261698;28;20026;-81
2023/01/26 03:00:36;;;;;;;123.63;42.15;;;;;;;-1.43;100.00;102395.94;5264165;28;20026;-81
2023/01/26 03:03:25;;;;;;;128.55;41.58;;;;;;;-1.46;100.00;102388.97;5261924;28;20491;-81
2023/01/26 03:05:57;;;;;;;119.07;39.85;;;;;;;-1.40;100.00;102393.28;5259338;28;20105;-81
2023/01/26 03:08:28;;;;;;;122.32;40.70;;;;;;;-1.42;100.00;102398.53;5262639;28;20065;-81
2023/01/26 03:10:59;;;;;;;123.97;41.97;;;;;;;-1.41;100.00;102400.22;5262770;28;20021;-81
2023/01/26 03:13:31;;;;;;;122.00;40.92;;;;;;;-1.45;100.00;102397.72;5261829;28;20080;-82
2023/01/26 03:16:06;;;;;;;121.25;41.00;;;;;;;-1.34;100.00;102394.00;5262172;28;20043;-82
2023/01/26 03:27:27;;;;;;;117.20;41.72;;;;;;;-1.22;100.00;102399.91;5255883;28;20033;-82
2023/01/26 03:29:58;;;;;;;120.53;40.60;;;;;;;-1.22;100.00;102392.06;5261417;28;20063;-81
2023/01/26 03:32:30;;;;;;;113.15;38.35;;;;;;;-1.24;100.00;102393.84;5261963;28;20029;-81
2023/01/26 03:35:02;;;;;;;116.28;41.65;;;;;;;-1.26;100.00;102398.22;5262028;28;20026;-81
2023/01/26 03:37:35;;;;;;;115.15;38.53;;;;;;;-1.21;100.00;102397.28;5262346;28;20684;-81
2023/01/26 03:57:16;;;;;;;113.03;36.47;;;;;;;-0.97;100.00;102382.81;5254953;28;20061;-81
2023/01/26 03:59:47;;;;;;;109.97;38.70;;;;;;;-1.02;100.00;102375.94;5259262;28;20068;-81
2023/01/26 04:08:25;;;;;;;104.47;35.17;;;;;;;-1.00;100.00;102379.41;5262932;28;20482;-81
2023/01/26 04:10:57;;;;;;;108.45;36.03;;;;;;;-0.97;100.00;102377.56;5261257;28;20079;-81
2023/01/26 04:21:59;;;;;;;87.95;31.13;;;;;;;-0.88;100.00;102380.91;5246994;28;20959;-80
2023/01/26 04:24:31;;;;;;;94.18;29.98;;;;;;;-0.78;100.00;102387.69;5265453;28;20021;-80
2023/01/26 04:27:02;;;;;;;91.32;30.38;;;;;;;-0.85;100.00;102379.09;5249217;28;20451;-81
2023/01/26 04:29:33;;;;;;;89.38;29.35;;;;;;;-0.74;100.00;102371.00;5268202;28;20540;-82
2023/01/26 04:32:05;;;;;;;88.20;29.83;;;;;;;-0.84;100.00;102372.97;5263786;28;20109;-81
2023/01/26 04:34:36;;;;;;;91.03;30.88;;;;;;;-0.85;100.00;102370.38;5243778;28;20041;-80
2023/01/26 04:37:08;;;;;;;85.95;30.30;;;;;;;-0.81;100.00;102372.03;5261927;28;20025;-81
2023/01/26 04:39:39;;;;;;;94.95;30.02;;;;;;;-0.85;100.00;102373.84;5244323;28;20032;-81
2023/01/26 04:42:10;;;;;;;83.82;28.98;;;;;;;-0.84;100.00;102375.59;5263117;28;20022;-81
2023/01/26 04:44:42;;;;;;;77.60;25.98;;;;;;;-0.81;100.00;102377.28;5259946;28;20052;-81
2023/01/26 04:47:13;;;;;;;81.20;27.48;;;;;;;-0.84;100.00;102377.34;5261904;28;20045;-82
2023/01/26 04:49:45;;;;;;;74.70;25.90;;;;;;;-0.71;100.00;102381.44;5243854;28;20167;-81
2023/01/26 04:52:17;;;;;;;84.20;26.58;;;;;;;-0.70;100.00;102379.66;5261552;28;20026;-82
2023/01/26 04:54:48;;;;;;;83.97;26.27;;;;;;;-0.67;100.00;102375.22;5259430;28;20034;-82
2023/01/26 04:57:20;;;;;;;81.70;27.00;;;;;;;-0.67;100.00;102375.22;5261777;28;20100;-82
2023/01/26 04:59:51;;;;;;;80.30;26.98;;;;;;;-0.65;100.00;102373.47;5260238;28;20026;-82
2023/01/26 05:02:22;;;;;;;79.53;26.17;;;;;;;-0.58;100.00;102376.78;5254045;28;20079;-82
2023/01/26 05:04:53;;;;;;;88.35;27.65;;;;;;;-0.58;100.00;102375.06;5258712;28;20044;-82
2023/01/26 05:07:25;;;;;;;79.45;25.38;;;;;;;-0.55;100.00;102375.88;5256900;28;20454;-81
2023/01/26 05:09:56;;;;;;;73.75;25.35;;;;;;;-0.54;100.00;102373.22;5255822;28;20027;-81
2023/01/26 05:12:33;;;;;;;72.07;25.52;;;;;;;-0.52;100.00;102368.81;5255372;28;20026;-81
2023/01/26 05:15:05;;;;;;;78.82;24.73;;;;;;;-0.50;100.00;102376.63;5254338;28;20417;-81
2023/01/26 05:17:36;;;;;;;82.15;27.92;;;;;;;-0.55;100.00;102375.88;5237143;28;20032;-81
2023/01/26 05:20:08;;;;;;;76.68;25.58;;;;;;;-0.54;100.00;102372.34;5256839;28;20021;-81
2023/01/26 05:22:40;;;;;;;76.65;25.88;;;;;;;-0.51;100.00;102374.91;5255009;28;20424;-81
2023/01/26 05:25:11;;;;;;;68.55;22.67;;;;;;;-0.47;100.00;102368.72;5237794;28;20055;-81
2023/01/26 05:27:43;;;;;;;79.30;23.85;;;;;;;-0.49;100.00;102365.25;5254226;28;20116;-79
2023/01/26 05:30:15;;;;;;;71.88;23.95;;;;;;;-0.39;100.00;102372.88;5253416;28;20486;-81
2023/01/26 05:32:46;;;;;;;79.18;25.50;;;;;;;-0.45;100.00;102380.03;5255185;28;20022;-81
2023/01/26 05:35:17;;;;;;;79.00;24.35;;;;;;;-0.45;100.00;102378.25;5256916;28;20029;-82
2023/01/26 05:37:49;;;;;;;71.43;23.27;;;;;;;-0.41;100.00;102384.28;5255998;28;20029;-82
2023/01/26 05:40:20;;;;;;;74.13;22.92;;;;;;;-0.38;100.00;102371.97;5256386;28;20026;-82
2023/01/26 05:42:53;;;;;;;73.18;23.40;;;;;;;-0.45;100.00;102380.03;5256117;28;20032;-82
2023/01/26 05:45:24;;;;;;;78.03;25.33;;;;;;;-0.42;100.00;102374.69;5257198;28;20040;-82
2023/01/26 05:47:55;;;;;;;74.65;23.50;;;;;;;-0.42;100.00;102379.94;5255721;28;20037;-82
2023/01/26 05:50:27;;;;;;;80.53;24.98;;;;;;;-0.38;100.00;102381.59;5256484;28;20072;-81
2023/01/26 05:52:59;;;;;;;77.75;24.45;;;;;;;-0.42;100.00;102383.44;5251917;28;20366;-79
2023/01/26 05:55:31;;;;;;;68.85;23.55;;;;;;;-0.38;100.00;102376.38;5256033;28;20029;-79
2023/01/26 05:58:02;;;;;;;71.50;23.92;;;;;;;-0.41;100.00;102377.28;5251198;28;20053;-80
2023/01/26 06:00:33;;;;;;;74.82;24.48;;;;;;;-0.45;100.00;102386.13;5259960;28;20079;-81
2023/01/26 06:03:05;;;;;;;67.47;23.02;;;;;;;-0.40;100.00;102379.00;5259050;28;20025;-81
2023/01/26 06:05:37;;;;;;;67.68;21.17;;;;;;;-0.41;100.00;102379.91;5260290;28;20059;-81
2023/01/26 06:08:08;;;;;;;64.65;21.38;;;;;;;-0.43;100.00;102388.72;5260090;28;20038;-80
2023/01/26 06:10:40;;;;;;;57.55;19.15;;;;;;;-0.26;100.00;102390.97;5261129;28;20489;-81
2023/01/26 06:13:11;;;;;;;66.15;21.02;;;;;;;-0.37;100.00;102383.31;5247059;28;20482;-80
2023/01/26 06:15:42;;;;;;;72.63;22.42;;;;;;;-0.35;100.00;102391.16;5260126;28;20030;-81
2023/01/26 06:18:13;;;;;;;68.13;22.13;;;;;;;-0.41;100.00;102400.88;5258387;28;20116;-81
2023/01/26 06:20:45;;;;;;;69.60;22.13;;;;;;;-0.40;100.00;102396.50;5254125;28;20032;-81
2023/01/26 06:23:16;;;;;;;69.43;22.20;;;;;;;-0.40;100.00;102393.91;5232771;28;20136;-80
2023/01/26 06:25:47;;;;;;;60.70;20.38;;;;;;;-0.38;100.00;102392.94;5241508;28;20560;-80
2023/01/26 06:28:19;;;;;;;72.43;21.95;;;;;;;-0.35;100.00;102388.53;5255706;28;20719;-81
2023/01/26 06:30:50;;;;;;;60.85;20.45;;;;;;;-0.28;100.00;102388.38;5235469;28;20120;-81
2023/01/26 06:33:22;;;;;;;70.68;20.83;;;;;;;-0.30;100.00;102387.56;5253009;28;20030;-81
2023/01/26 06:35:54;;;;;;;71.60;19.00;;;;;;;-0.02;100.00;102392.13;5256338;28;20072;-81
2023/01/26 06:38:25;;;;;;;87.82;22.50;;;;;;;-0.10;100.00;102401.97;5255965;28;20075;-81
2023/01/26 06:41:05;;;;;;;94.97;21.65;;;;;;;0.20;100.00;102396.88;5259559;28;20025;-81
2023/01/26 06:43:36;;;;;;;82.60;21.23;;;;;;;0.27;100.00;102401.94;5255442;28;20041;-81
2023/01/26 06:46:08;;;;;;;93.90;22.00;;;;;;;0.27;100.00;102396.69;5256734;28;20826;-81
2023/01/26 06:48:39;;;;;;;87.80;21.35;;;;;;;0.49;100.00;102398.75;5255220;28;20025;-81
2023/01/26 06:51:16;;;;;;;98.05;25.15;;;;;;;0.25;100.00;102405.53;5256234;28;20029;-81
2023/01/26 06:53:50;;;;;;;85.28;21.77;;;;;;;0.16;100.00;102407.44;5249437;28;20037;-80
2023/01/26 06:56:23;;;;;;;83.95;23.33;;;;;;;0.04;100.00;102401.66;5260180;28;20025;-79
2023/01/26 06:58:54;;;;;;;77.28;21.10;;;;;;;-0.03;100.00;102414.03;5257726;28;20060;-79
2023/01/26 07:01:26;;;;;;;82.05;20.92;;;;;;;-0.11;100.00;102403.72;5258019;28;20036;-80
2023/01/26 07:03:57;;;;;;;74.78;21.65;;;;;;;-0.12;100.00;102401.13;5257849;28;20025;-81
2023/01/26 07:06:28;;;;;;;74.20;22.45;;;;;;;-0.15;100.00;102407.31;5255770;28;20080;-80
2023/01/26 07:09:00;;;;;;;76.60;22.23;;;;;;;-0.13;100.00;102399.41;5241220;28;20030;-80
2023/01/26 07:11:31;;;;;;;76.43;21.08;;;;;;;-0.13;100.00;102413.38;5258476;28;20116;-80
2023/01/26 07:14:02;;;;;;;75.00;21.25;;;;;;;-0.21;100.00;102413.56;5259312;28;20053;-80
2023/01/26 07:16:34;;;;;;;75.18;20.92;;;;;;;-0.23;100.00;102415.38;5258307;28;20037;-80
2023/01/26 07:19:06;;;;;;;70.75;20.92;;;;;;;-0.22;100.00;102424.94;5252881;28;20042;-79
2023/01/26 07:21:38;;;;;;;73.85;20.08;;;;;;;-0.23;100.00;102418.00;5253960;28;20184;-80
2023/01/26 07:24:10;;;;;;;74.22;21.58;;;;;;;-0.23;100.00;102422.34;5251012;28;20033;-80
2023/01/26 07:26:41;;;;;;;75.43;21.67;;;;;;;-0.24;100.00;102423.25;5254833;28;20513;-79
2023/01/26 07:29:12;;;;;;;76.07;19.58;;;;;;;-0.24;100.00;102421.50;5254631;28;20036;-80
2023/01/26 07:31:43;;;;;;;82.70;20.85;;;;;;;-0.24;100.00;102415.41;5239402;28;20136;-79
2023/01/26 07:34:15;;;;;;;75.25;21.63;;;;;;;-0.24;100.00;102418.88;5258599;28;20025;-80
2023/01/26 07:36:46;;;;;;;74.50;20.92;;;;;;;-0.26;100.00;102419.81;5240603;28;20054;-80
2023/01/26 07:39:17;;;;;;;86.30;21.60;;;;;;;-0.26;100.00;102412.81;5255454;28;20470;-80
2023/01/26 07:41:49;;;;;;;79.95;20.98;;;;;;;-0.30;100.00;102411.16;5255537;28;20425;-80
2023/01/26 07:44:20;;;;;;;70.75;20.90;;;;;;;-0.26;100.00;102412.81;5255878;28;20026;-79
2023/01/26 07:46:53;;;;;;;84.60;21.42;;;;;;;-0.28;100.00;102424.22;5253109;28;20473;-79
2023/01/26 07:49:24;;;;;;;95.82;21.95;;;;;;;-0.29;100.00;102422.50;5238490;28;20482;-79
2023/01/26 07:51:55;;;;;;;80.03;23.13;;;;;;;-0.27;100.00;102432.03;5270339;28;20025;-79
2023/01/26 07:54:27;;;;;;;104.68;23.15;;;;;;;-0.25;100.00;102434.63;5241109;28;20026;-80
2023/01/26 07:56:59;;;;;;;84.32;21.55;;;;;;;-0.24;100.00;102439.00;5255804;28;20034;-80
2023/01/26 07:59:30;;;;;;;91.35;22.88;;;;;;;-0.21;100.00;102439.78;5250168;28;20026;-81
2023/01/26 08:02:01;;;;;;;90.43;24.17;;;;;;;-0.21;100.00;102449.41;5257807;28;20147;-80
2023/01/26 08:04:33;;;;;;;88.28;22.00;;;;;;;-0.18;100.00;102443.25;5261856;28;20390;-82
2023/01/26 08:07:04;;;;;;;96.28;24.48;;;;;;;-0.20;100.00;102440.66;5262390;28;20688;-80
2023/01/26 08:09:35;;;;;;;105.60;23.83;;;;;;;-0.24;100.00;102442.47;5262286;28;20034;-80
2023/01/26 08:12:07;;;;;;;91.55;22.95;;;;;;;-0.12;100.00;102443.97;5244176;28;20024;-81
2023/01/26 08:14:38;;;;;;;86.78;21.42;;;;;;;-0.10;100.00;102442.16;5261601;28;20029;-81
2023/01/26 08:17:09;;;;;;;100.68;23.83;;;;;;;-0.12;100.00;102453.56;5261439;28;20103;-81
2023/01/26 08:19:41;;;;;;;104.85;23.50;;;;;;;-0.14;100.00;102458.00;5262550;28;20032;-82
2023/01/26 08:22:12;;;;;;;97.78;24.02;;;;;;;-0.12;100.00;102454.47;5261185;28;27842;-81
2023/01/26 08:24:43;;;;;;;86.85;23.58;;;;;;;-0.07;100.00;102462.22;5261494;28;20048;-81
2023/01/26 08:27:16;;;;;;;109.40;23.88;;;;;;;-0.08;100.00;102460.50;5262747;28;20018;-80
2023/01/26 08:29:47;;;;;;;87.65;23.85;;;;;;;-0.08;100.00;102445.63;5244083;28;20047;-81
2023/01/26 08:32:19;;;;;;;123.00;24.00;;;;;;;-0.08;100.00;102450.88;5262569;28;20474;-80
2023/01/26 08:34:50;;;;;;;99.32;22.85;;;;;;;-0.09;100.00;102462.28;5261654;28;20108;-80
2023/01/26 08:37:21;;;;;;;102.03;23.08;;;;;;;-0.08;100.00;102463.97;5261671;28;20026;-81
2023/01/26 08:39:52;;;;;;;105.32;23.95;;;;;;;-0.07;100.00;102456.97;5242931;28;20053;-81
2023/01/26 08:42:24;;;;;;;101.43;23.13;;;;;;;-0.01;100.00;102455.06;5262047;28;20108;-80
2023/01/26 08:44:55;;;;;;;102.60;23.38;;;;;;;0.05;100.00;102463.69;5262476;28;20028;-79
2023/01/26 08:47:26;;;;;;;85.55;23.48;;;;;;;0.14;100.00;102461.75;5261526;28;20041;-81
2023/01/26 08:49:58;;;;;;;108.03;23.27;;;;;;;0.11;100.00;102467.06;5261800;28;20548;-81
2023/01/26 08:52:29;;;;;;;107.32;22.88;;;;;;;0.09;100.00;102466.22;5262514;28;20025;-80
2023/01/26 08:55:02;;;;;;;93.55;24.65;;;;;;;0.08;100.00;102464.50;5244713;28;20013;-81
2023/01/26 08:57:33;;;;;;;91.80;22.98;;;;;;;0.15;100.00;102473.09;5261264;28;20037;-81
2023/01/26 09:00:06;;;;;;;97.00;23.73;;;;;;;0.18;100.00;102466.00;5260726;28;20462;-81
2023/01/26 09:02:37;;;;;;;107.07;24.40;;;;;;;0.19;100.00;102464.25;5262102;28;20966;-81
2023/01/26 09:05:09;;;;;;;112.00;24.98;;;;;;;0.19;100.00;102466.88;5260911;28;34290;-81
2023/01/26 09:07:40;;;;;;;107.35;24.08;;;;;;;0.21;100.00;102465.09;5262172;28;20337;-81
2023/01/26 09:10:11;;;;;;;88.22;23.40;;;;;;;0.28;100.00;102464.03;5260924;28;20030;-81
2023/01/26 09:12:42;;;;;;;109.70;24.35;;;;;;;0.26;100.00;102468.44;5261668;28;20041;-80
2023/01/26 09:15:14;;;;;;;107.93;22.83;;;;;;;0.28;100.00;102468.41;5262785;28;20450;-81
2023/01/26 09:17:49;;;;;;;119.28;24.92;;;;;;;0.36;100.00;102463.84;5260276;28;20029;-81
2023/01/26 09:20:21;;;;;;;102.95;23.65;;;;;;;0.38;100.00;102465.53;5257829;28;20112;-80
2023/01/26 09:22:53;;;;;;;143.10;27.45;;;;;;;0.34;100.00;102477.00;5262059;28;20121;-81
2023/01/26 09:25:24;;;;;;;112.93;25.75;;;;;;;0.42;100.00;102476.84;5262127;28;20140;-81
2023/01/26 09:27:56;;;;;;;109.40;25.38;;;;;;;0.53;100.00;102466.06;5260163;28;20033;-81
2023/01/26 09:30:27;;;;;;;142.73;25.15;;;;;;;0.45;100.00;102475.91;5273653;28;20097;-80
2023/01/26 09:33:00;;;;;;;109.90;24.60;;;;;;;0.60;100.00;102485.16;5281227;28;20060;-80
2023/01/26 09:35:32;;;;;;;135.77;25.40;;;;;;;0.59;100.00;102483.44;5280605;28;20025;-79
2023/01/26 09:38:03;;;;;;;84.10;24.45;;;;;;;0.61;100.00;102479.00;5273271;28;20018;-81
2023/01/26 09:41:17;;;;;;;144.70;25.83;;;;;;;0.64;100.00;102468.44;5260882;28;20120;-81
2023/01/26 09:44:04;;;;;;;112.13;24.63;;;;;;;0.67;100.00;102486.75;5261449;28;20394;-80
2023/01/26 09:46:47;;;;;;;144.10;25.38;;;;;;;0.63;100.00;102485.06;5261271;28;20048;-81
2023/01/26 09:49:38;;;;;;;125.50;23.85;;;;;;;0.61;100.00;102482.47;5260584;28;20076;-81
2023/01/26 09:52:35;;;;;;;100.97;22.95;;;;;;;0.67;100.00;102478.88;5261771;28;20025;-81
2023/01/26 09:55:13;;;;;;;138.73;25.27;;;;;;;0.60;100.00;102479.88;5261734;28;20490;-82
2023/01/26 09:58:03;;;;;;;74.75;21.65;;;;;;;0.71;100.00;102483.13;5260301;28;20022;-82
2023/01/26 10:00:45;;;;;;;156.00;24.98;;;;;;;0.60;100.00;102482.53;5261223;28;20522;-82
2023/01/26 10:03:36;;;;;;;101.55;22.42;;;;;;;0.72;100.00;102480.47;5260744;28;20087;-81
2023/01/26 10:06:25;;;;;;;99.97;25.15;;;;;;;0.67;100.00;102474.47;5261525;28;20032;-81
2023/01/26 10:09:19;;;;;;;135.93;24.27;;;;;;;0.62;100.00;102481.59;5260158;28;20474;-82
2023/01/26 10:11:55;;;;;;;125.28;24.15;;;;;;;0.73;100.00;102471.66;5261247;28;20113;-83
2023/01/26 10:14:34;;;;;;;157.77;24.83;;;;;;;0.80;100.00;102476.78;5264115;28;20056;-82
2023/01/26 10:17:15;;;;;;;115.63;25.88;;;;;;;0.87;100.00;102478.34;5264374;28;20030;-82
2023/01/26 10:19:56;;;;;;;122.57;23.95;;;;;;;0.90;100.00;102476.50;5263648;28;20076;-82
2023/01/26 10:22:37;;;;;;;123.60;24.73;;;;;;;0.87;100.00;102470.47;5264327;28;20042;-81
2023/01/26 10:25:21;;;;;;;116.40;23.65;;;;;;;0.92;100.00;102476.47;5264475;28;20509;-81
2023/01/26 10:27:53;;;;;;;98.13;26.48;;;;;;;1.03;100.00;102478.81;5263709;28;20099;-82
2023/01/26 10:30:24;;;;;;;114.72;25.10;;;;;;;1.04;100.00;102472.66;5264924;28;20026;-82
2023/01/26 10:32:56;;;;;;;114.07;26.27;;;;;;;1.22;100.00;102473.91;5264835;28;20025;-82
2023/01/26 10:35:27;;;;;;;105.95;26.92;;;;;;;1.39;100.00;102490.09;5264595;28;20075;-81
2023/01/26 10:37:58;;;;;;;105.47;26.45;;;;;;;1.33;100.00;102479.72;5246063;28;21417;-82
2023/01/26 10:40:43;;;;;;;114.28;26.80;;;;;;;1.50;100.00;102487.16;5266679;28;20421;-82
2023/01/26 10:43:17;;;;;;;96.47;28.33;;;;;;;1.50;100.00;102482.75;5268823;28;20033;-82
2023/01/26 10:45:49;;;;;;;91.25;28.10;;;;;;;1.58;100.00;102484.28;5272259;28;20064;-82
2023/01/26 10:48:25;;;;;;;98.43;27.80;;;;;;;1.63;100.00;102485.91;5245224;28;20113;-82
2023/01/26 10:51:14;;;;;;;90.20;27.55;;;;;;;1.89;100.00;102479.00;5264087;28;20021;-82
2023/01/26 10:53:45;;;;;;;96.85;27.55;;;;;;;1.85;100.00;102486.13;5263680;28;20068;-82
2023/01/26 10:56:17;;;;;;;93.53;26.88;;;;;;;1.98;100.00;102489.25;5264039;28;20021;-82
2023/01/26 10:58:54;;;;;;;120.20;29.33;;;;;;;2.08;100.00;102489.81;5262494;28;20109;-82
2023/01/26 11:01:28;;;;;;;101.47;29.02;;;;;;;2.15;100.00;102480.81;5263107;28;20030;-82
2023/01/26 11:04:11;;;;;;;89.45;26.85;;;;;;;2.36;100.00;102479.28;5264208;28;20100;-83
2023/01/26 11:06:42;;;;;;;95.10;27.13;;;;;;;2.44;100.00;102476.44;5264136;28;20386;-83
2023/01/26 11:09:13;;;;;;;114.50;27.55;;;;;;;2.58;100.00;102483.88;5263931;28;20037;-83
2023/01/26 11:12:18;;;;;;;118.93;28.48;;;;;;;2.90;100.00;102476.66;5264269;28;20022;-83
2023/01/26 11:15:04;;;;;;;97.15;26.98;;;;;;;3.06;100.00;102472.56;5233886;28;20551;-82
2023/01/26 11:17:43;;;;;;;94.18;27.40;;;;;;;3.12;100.00;102475.00;5263188;28;20108;-83
2023/01/26 11:20:27;;;;;;;120.22;29.15;;;;;;;3.36;100.00;102477.66;5262894;28;20651;-83
2023/01/26 11:23:13;;;;;;;87.90;25.92;;;;;;;3.42;100.00;102480.09;5262870;28;20597;-83
2023/01/26 11:26:24;;;;;;;115.15;29.15;;;;;;;3.78;100.00;102480.47;5263596;28;20032;-83
2023/01/26 11:29:17;;;;;;;109.03;28.40;;;;;;;3.94;100.00;102479.88;5244011;28;20029;-83
2023/01/26 11:32:04;;;;;;;97.35;30.35;;;;;;;4.16;100.00;102477.28;5262761;28;20044;-83
2023/01/26 11:34:43;;;;;;;100.43;29.85;;;;;;;4.38;100.00;102481.69;5263288;28;20014;-83
2023/01/26 11:37:35;;;;;;;91.00;28.25;;;;;;;4.90;100.00;102477.72;5261416;28;26498;-82
2023/01/26 11:40:24;;;;;;;91.18;28.70;;;;;;;5.32;100.00;102478.59;5261434;28;20379;-82
2023/01/26 11:43:04;;;;;;;83.68;25.65;;;;;;;5.44;100.00;102479.81;5261294;28;20043;-83
2023/01/26 11:45:53;;;;;;;85.80;26.80;;;;;;;5.45;100.00;102474.47;5258173;28;20136;-83
2023/01/26 11:48:58;;;;;;;73.80;25.48;;;;;;;5.67;100.00;102478.78;5256374;28;20041;-83
2023/01/26 11:51:41;;;;;;;70.18;24.50;;;;;;;5.81;100.00;102479.00;5242092;28;20025;-84
2023/01/26 11:54:33;;;;;;;58.72;22.42;;;;;;;6.29;100.00;102465.31;5257176;28;20091;-84
2023/01/26 11:57:29;;;;;;;58.95;22.90;;;;;;;7.24;100.00;102452.53;5253977;28;20041;-84
2023/01/26 12:00:22;;;;;;;67.25;23.13;;;;;;;8.31;100.00;102453.69;5261281;28;20029;-84
2023/01/26 12:03:02;;;;;;;61.22;23.58;;;;;;;10.65;100.00;102464.13;5263664;28;20037;-85
2023/01/26 12:05:45;;;;;;;52.92;21.45;;;;;;;11.91;100.00;102452.66;5274743;28;20025;-83
2023/01/26 12:08:21;;;;;;;39.65;19.05;;;;;;;12.98;100.00;102453.59;5280311;28;20073;-84
2023/01/26 12:10:52;;;;;;;38.92;17.45;;;;;;;14.24;100.00;102442.69;5271772;28;20029;-84
2023/01/26 12:13:39;;;;;;;29.85;14.82;;;;;;;15.32;100.00;102440.59;5244318;28;20039;-84
2023/01/26 12:16:31;;;;;;;30.23;15.38;;;;;;;16.25;100.00;102433.22;5256493;28;20104;-84